^^
B2 Weather Station Historical Data
Daily Summary for November 27, 2018 Units:  English    Metric   Both
Daily Weekly Monthly Yearly Custom
  High: Low: Average:
Temperature: 24.7 °F 16.7 °F 21.1 °F
Dew Point: 19.7 °F 13.5 °F 16.8 °F
Humidity: 87% 76% 83%
Wind Speed: 16.1mph 3.5mph 8.7mph
Wind Gust: 9.3mph - -
Wind- - WNW
Pressure: 30.09 in 30.00 in -
Precipitation: 0.00 in    
Historical Graphs
 
 
Tabular Data for November 27, 2018
Time Temperature Dew Point Pressure Wind Wind Speed Wind Gust Humidity Rainfall Rate (Hourly) solar
00:04 24.7 °F 19.1 °F 30.01 in NW 9.2 mph 3.7 mph 79% 0.00 in 0.00 W/m2
00:09 24.7 °F 19.1 °F 30.01 in NW 11.5 mph 4.9 mph 79% 0.00 in 0.00 W/m2
00:14 24.7 °F 18.8 °F 30.01 in NNW 4.0 mph 3.3 mph 78% 0.00 in 0.00 W/m2
00:19 24.7 °F 18.8 °F 30.01 in SW 11.5 mph 4.8 mph 78% 0.00 in 0.00 W/m2
00:24 24.7 °F 18.8 °F 30.01 in NW 10.4 mph 5.6 mph 78% 0.00 in 0.00 W/m2
00:29 24.7 °F 19.1 °F 30.01 in WNW 6.9 mph 3.7 mph 79% 0.00 in 0.00 W/m2
00:34 24.7 °F 19.1 °F 30.01 in North 6.0 mph 4.8 mph 79% 0.00 in 0.00 W/m2
00:39 24.7 °F 19.7 °F 30.01 in WSW 8.1 mph 4.5 mph 81% 0.00 in 0.00 W/m2
00:44 24.6 °F 19.6 °F 30.01 in West 10.4 mph 3.6 mph 81% 0.00 in 0.00 W/m2
00:49 24.5 °F 19.5 °F 30.01 in West 9.2 mph 5.0 mph 81% 0.00 in 0.00 W/m2
00:54 24.4 °F 19.7 °F 30.00 in West 8.1 mph 3.5 mph 82% 0.00 in 0.00 W/m2
00:59 24.4 °F 19.7 °F 30.00 in North 6.9 mph 5.0 mph 82% 0.00 in 0.00 W/m2
01:04 24.3 °F 19.6 °F 30.01 in WSW 5.8 mph 4.1 mph 82% 0.00 in 0.00 W/m2
01:09 24.3 °F 19.6 °F 30.01 in WNW 8.1 mph 4.0 mph 82% 0.00 in 0.00 W/m2
01:14 24.2 °F 19.5 °F 30.01 in West 6.9 mph 5.6 mph 82% 0.00 in 0.00 W/m2
01:19 24.2 °F 19.5 °F 30.01 in West 9.0 mph 3.4 mph 82% 0.00 in 0.00 W/m2
01:24 24.1 °F 19.4 °F 30.01 in WNW 9.2 mph 4.6 mph 82% 0.00 in 0.00 W/m2
01:29 24.0 °F 19.0 °F 30.01 in WNW 9.2 mph 6.4 mph 81% 0.00 in 0.00 W/m2
01:34 23.9 °F 18.6 °F 30.01 in WNW 9.2 mph 3.7 mph 80% 0.00 in 0.00 W/m2
01:39 23.9 °F 18.6 °F 30.01 in NW 10.0 mph 6.2 mph 80% 0.00 in 0.00 W/m2
01:44 23.8 °F 18.2 °F 30.01 in WNW 10.4 mph 4.8 mph 79% 0.00 in 0.00 W/m2
01:49 23.8 °F 18.2 °F 30.01 in NW 8.1 mph 4.8 mph 79% 0.00 in 0.00 W/m2
01:54 23.6 °F 17.4 °F 30.01 in WNW 10.4 mph 6.1 mph 77% 0.00 in 0.00 W/m2
01:59 23.5 °F 17.0 °F 30.01 in NW 11.5 mph 6.6 mph 76% 0.00 in 0.00 W/m2
02:04 23.4 °F 16.9 °F 30.01 in NW 8.1 mph 6.4 mph 76% 0.00 in 0.00 W/m2
02:09 23.3 °F 16.9 °F 30.01 in West 10.0 mph 5.8 mph 76% 0.00 in 0.00 W/m2
02:14 23.3 °F 17.2 °F 30.01 in NW 8.1 mph 6.0 mph 77% 0.00 in 0.00 W/m2
02:19 23.2 °F 17.1 °F 30.01 in North 9.2 mph 5.0 mph 77% 0.00 in 0.00 W/m2
02:24 23.1 °F 17.0 °F 30.01 in NW 7.0 mph 5.9 mph 77% 0.00 in 0.00 W/m2
02:29 23.0 °F 16.9 °F 30.01 in WNW 8.0 mph 3.4 mph 77% 0.00 in 0.00 W/m2
02:34 23.0 °F 17.2 °F 30.01 in West 3.5 mph 4.2 mph 78% 0.00 in 0.00 W/m2
02:39 23.0 °F 17.2 °F 30.01 in North 6.0 mph 5.6 mph 78% 0.00 in 0.00 W/m2
02:44 22.9 °F 17.4 °F 30.01 in NNW 6.9 mph 4.6 mph 79% 0.00 in 0.00 W/m2
02:49 22.8 °F 17.6 °F 30.01 in WNW 6.9 mph 4.6 mph 80% 0.00 in 0.00 W/m2
02:54 22.7 °F 17.5 °F 30.01 in NW 8.1 mph 5.6 mph 80% 0.00 in 0.00 W/m2
02:59 22.6 °F 17.6 °F 30.01 in West 5.8 mph 3.2 mph 81% 0.00 in 0.00 W/m2
03:04 22.4 °F 17.2 °F 30.01 in NW 10.4 mph 2.8 mph 80% 0.00 in 0.00 W/m2
03:09 22.4 °F 17.2 °F 30.01 in WNW 8.1 mph 4.6 mph 80% 0.00 in 0.00 W/m2
03:14 22.3 °F 17.4 °F 30.01 in WNW 8.1 mph 4.7 mph 81% 0.00 in 0.00 W/m2
03:19 22.2 °F 17.3 °F 30.01 in WNW 8.1 mph 5.0 mph 81% 0.00 in 0.00 W/m2
03:24 22.2 °F 17.3 °F 30.01 in NW 6.0 mph 2.3 mph 81% 0.00 in 0.00 W/m2
03:29 22.1 °F 17.2 °F 30.01 in NW 9.2 mph 5.7 mph 81% 0.00 in 0.00 W/m2
03:34 22.0 °F 17.1 °F 30.01 in WNW 8.1 mph 6.4 mph 81% 0.00 in 0.00 W/m2
03:39 21.9 °F 17.0 °F 30.01 in NW 6.9 mph 3.4 mph 81% 0.00 in 0.00 W/m2
03:44 21.9 °F 16.7 °F 30.01 in WNW 7.0 mph 5.3 mph 80% 0.00 in 0.00 W/m2
03:49 21.9 °F 16.7 °F 30.01 in WNW 7.0 mph 4.5 mph 80% 0.00 in 0.00 W/m2
03:54 22.0 °F 16.8 °F 30.01 in WNW 6.0 mph 3.4 mph 80% 0.00 in 0.00 W/m2
03:59 22.0 °F 16.8 °F 30.01 in WNW 8.1 mph 6.2 mph 80% 0.00 in 0.00 W/m2
04:04 22.0 °F 16.8 °F 30.01 in WNW 8.1 mph 3.4 mph 80% 0.00 in 0.00 W/m2
04:09 22.1 °F 16.9 °F 30.01 in NW 8.1 mph 6.1 mph 80% 0.00 in 0.00 W/m2
04:14 22.1 °F 16.9 °F 30.01 in West 4.6 mph 3.8 mph 80% 0.00 in 0.00 W/m2
04:19 22.0 °F 16.5 °F 30.01 in WNW 6.9 mph 4.0 mph 79% 0.00 in 0.00 W/m2
04:24 22.0 °F 16.5 °F 30.01 in WNW 8.1 mph 3.6 mph 79% 0.00 in 0.00 W/m2
04:29 22.0 °F 16.8 °F 30.02 in NW 6.9 mph 4.3 mph 80% 0.00 in 0.00 W/m2
04:34 22.0 °F 16.8 °F 30.02 in West 4.6 mph 2.9 mph 80% 0.00 in 0.00 W/m2
04:39 21.9 °F 16.7 °F 30.02 in West 9.2 mph 5.5 mph 80% 0.00 in 0.00 W/m2
04:44 21.8 °F 16.6 °F 30.02 in WNW 9.2 mph 5.8 mph 80% 0.00 in 0.00 W/m2
04:49 21.8 °F 16.9 °F 30.01 in NW 6.9 mph 3.9 mph 81% 0.00 in 0.00 W/m2
04:54 21.8 °F 16.9 °F 30.02 in WNW 9.0 mph 5.4 mph 81% 0.00 in 0.00 W/m2
04:59 21.7 °F 16.8 °F 30.02 in NW 8.1 mph 4.8 mph 81% 0.00 in 0.00 W/m2
05:04 21.6 °F 16.7 °F 30.02 in WNW 12.7 mph 6.0 mph 81% 0.00 in 0.00 W/m2
05:09 21.6 °F 16.7 °F 30.02 in WNW 10.4 mph 5.7 mph 81% 0.00 in 0.00 W/m2
05:14 21.5 °F 16.9 °F 30.02 in WNW 6.9 mph 5.3 mph 82% 0.00 in 0.00 W/m2
05:19 21.5 °F 16.9 °F 30.02 in NW 5.8 mph 3.8 mph 82% 0.00 in 0.00 W/m2
05:24 21.4 °F 17.0 °F 30.02 in WNW 9.2 mph 6.0 mph 83% 0.00 in 0.00 W/m2
05:29 21.4 °F 17.0 °F 30.02 in North 8.0 mph 3.3 mph 83% 0.00 in 0.00 W/m2
05:34 21.3 °F 16.9 °F 30.02 in WNW 7.0 mph 3.5 mph 83% 0.00 in 0.00 W/m2
05:39 21.4 °F 17.0 °F 30.03 in NW 4.6 mph 2.0 mph 83% 0.00 in 0.00 W/m2
05:44 21.4 °F 17.3 °F 30.02 in WNW 10.0 mph 2.5 mph 84% 0.00 in 0.00 W/m2
05:49 21.4 °F 17.3 °F 30.02 in WNW 4.6 mph 2.3 mph 84% 0.00 in 0.00 W/m2
05:54 21.3 °F 17.2 °F 30.03 in WNW 5.8 mph 5.2 mph 84% 0.00 in 0.00 W/m2
05:59 21.3 °F 17.5 °F 30.03 in WSW 8.1 mph 5.5 mph 85% 0.00 in 0.00 W/m2
06:04 21.2 °F 17.4 °F 30.03 in NW 5.8 mph 3.3 mph 85% 0.00 in 0.00 W/m2
06:09 21.1 °F 17.3 °F 30.03 in West 5.8 mph 2.4 mph 85% 0.00 in 0.00 W/m2
06:14 21.1 °F 17.3 °F 30.03 in WNW 6.9 mph 3.7 mph 85% 0.00 in 0.00 W/m2
06:19 21.1 °F 17.3 °F 30.03 in NW 8.1 mph 5.4 mph 85% 0.00 in 0.00 W/m2
06:24 21.1 °F 17.3 °F 30.03 in NW 6.9 mph 5.4 mph 85% 0.00 in 0.00 W/m2
06:29 21.1 °F 17.3 °F 30.03 in West 6.9 mph 3.9 mph 85% 0.00 in 0.00 W/m2
06:34 21.1 °F 17.3 °F 30.03 in WNW 5.0 mph 4.3 mph 85% 0.00 in 0.00 W/m2
06:39 21.1 °F 17.3 °F 30.03 in NW 3.5 mph 3.5 mph 85% 0.00 in 0.00 W/m2
06:44 21.1 °F 17.3 °F 30.03 in SW 5.8 mph 3.4 mph 85% 0.00 in 0.00 W/m2
06:49 21.1 °F 17.6 °F 30.03 in NW 6.0 mph 4.2 mph 86% 0.00 in 0.00 W/m2
06:54 21.1 °F 17.6 °F 30.03 in WNW 6.9 mph 4.3 mph 86% 0.00 in 0.00 W/m2
06:59 21.1 °F 17.6 °F 30.04 in SW 4.6 mph 3.0 mph 86% 0.00 in 0.00 W/m2
07:04 21.1 °F 17.6 °F 30.04 in WSW 3.5 mph 1.6 mph 86% 0.00 in 5.00 W/m2
07:09 21.1 °F 17.6 °F 30.04 in WSW 4.0 mph 2.2 mph 86% 0.00 in 7.00 W/m2
07:14 21.2 °F 17.7 °F 30.04 in WNW 6.0 mph 2.7 mph 86% 0.00 in 9.00 W/m2
07:19 21.1 °F 17.6 °F 30.04 in WSW 6.9 mph 3.7 mph 86% 0.00 in 14.00 W/m2
07:24 21.1 °F 17.6 °F 30.04 in WNW 6.9 mph 4.4 mph 86% 0.00 in 16.00 W/m2
07:29 21.1 °F 17.6 °F 30.04 in West 5.8 mph 4.1 mph 86% 0.00 in 18.00 W/m2
07:34 21.1 °F 17.6 °F 30.04 in West 4.6 mph 4.2 mph 86% 0.00 in 23.00 W/m2
07:39 21.0 °F 17.5 °F 30.04 in North 11.5 mph 5.6 mph 86% 0.00 in 26.00 W/m2
07:44 20.9 °F 17.4 °F 30.04 in NW 12.7 mph 5.2 mph 86% 0.00 in 32.00 W/m2
07:49 21.0 °F 17.7 °F 30.04 in SW 12.7 mph 6.3 mph 87% 0.00 in 33.00 W/m2
07:54 21.0 °F 17.7 °F 30.04 in West 9.2 mph 4.3 mph 87% 0.00 in 40.00 W/m2
07:59 21.0 °F 17.7 °F 30.04 in North 10.4 mph 5.4 mph 87% 0.00 in 51.00 W/m2
08:04 21.1 °F 17.8 °F 30.04 in West 11.5 mph 5.6 mph 87% 0.00 in 58.00 W/m2
08:09 21.1 °F 17.8 °F 30.04 in WSW 6.9 mph 5.2 mph 87% 0.00 in 67.00 W/m2
08:14 21.2 °F 17.9 °F 30.04 in West 8.1 mph 4.5 mph 87% 0.00 in 77.00 W/m2
08:19 21.3 °F 18.0 °F 30.04 in WNW 9.2 mph 5.1 mph 87% 0.00 in 83.00 W/m2
08:24 21.4 °F 18.1 °F 30.04 in North 8.1 mph 5.5 mph 87% 0.00 in 88.00 W/m2
08:29 21.4 °F 18.1 °F 30.04 in WSW 11.5 mph 6.1 mph 87% 0.00 in 97.00 W/m2
08:34 21.4 °F 18.1 °F 30.05 in NW 11.5 mph 4.5 mph 87% 0.00 in 100.00 W/m2
08:39 21.6 °F 18.3 °F 30.04 in SW 7.0 mph 4.2 mph 87% 0.00 in 100.00 W/m2
08:44 21.5 °F 18.2 °F 30.04 in NW 10.0 mph 5.6 mph 87% 0.00 in 120.00 W/m2
08:49 21.5 °F 18.2 °F 30.05 in West 9.2 mph 5.8 mph 87% 0.00 in 114.00 W/m2
08:54 21.6 °F 18.3 °F 30.05 in North 9.2 mph 6.9 mph 87% 0.00 in 120.00 W/m2
08:59 21.5 °F 18.0 °F 30.05 in West 8.1 mph 7.0 mph 86% 0.00 in 121.00 W/m2
09:04 21.5 °F 18.2 °F 30.05 in West 6.9 mph 6.3 mph 87% 0.00 in 123.00 W/m2
09:09 21.5 °F 18.0 °F 30.05 in North 10.4 mph 6.2 mph 86% 0.00 in 132.00 W/m2
09:14 21.6 °F 18.1 °F 30.05 in North 9.2 mph 6.5 mph 86% 0.00 in 135.00 W/m2
09:19 21.7 °F 18.2 °F 30.05 in West 10.4 mph 4.8 mph 86% 0.00 in 148.00 W/m2
09:24 21.8 °F 18.3 °F 30.05 in North 7.0 mph 5.9 mph 86% 0.00 in 149.00 W/m2
09:29 21.8 °F 18.3 °F 30.05 in North 9.2 mph 3.5 mph 86% 0.00 in 149.00 W/m2
09:35 21.9 °F 18.4 °F 30.05 in SW 11.5 mph 3.1 mph 86% 0.00 in 158.00 W/m2
09:39 22.0 °F 18.5 °F 30.05 in WNW 9.2 mph 5.7 mph 86% 0.00 in 167.00 W/m2
09:44 22.2 °F 18.7 °F 30.05 in NW 6.9 mph 4.6 mph 86% 0.00 in 174.00 W/m2
09:49 22.2 °F 18.7 °F 30.05 in North 8.1 mph 4.6 mph 86% 0.00 in 178.00 W/m2
09:54 22.4 °F 18.8 °F 30.05 in West 10.4 mph 4.9 mph 86% 0.00 in 193.00 W/m2
09:59 22.5 °F 18.9 °F 30.05 in WNW 6.9 mph 1.6 mph 86% 0.00 in 200.00 W/m2
10:04 22.7 °F 19.1 °F 30.04 in WNW 8.1 mph 6.1 mph 86% 0.00 in 209.00 W/m2
10:09 22.9 °F 19.3 °F 30.04 in West 7.0 mph 2.1 mph 86% 0.00 in 202.00 W/m2
10:14 22.9 °F 19.1 °F 30.04 in WSW 10.4 mph 7.0 mph 85% 0.00 in 229.00 W/m2
10:19 22.9 °F 19.1 °F 30.04 in North 5.8 mph 4.3 mph 85% 0.00 in 202.00 W/m2
10:24 23.0 °F 19.2 °F 30.04 in North 11.5 mph 3.3 mph 85% 0.00 in 230.00 W/m2
10:29 23.2 °F 19.1 °F 30.04 in WNW 9.2 mph 4.4 mph 84% 0.00 in 227.00 W/m2
10:34 23.3 °F 19.2 °F 30.04 in WNW 10.4 mph 2.9 mph 84% 0.00 in 246.00 W/m2
10:39 23.3 °F 18.9 °F 30.04 in WNW 6.0 mph 4.3 mph 83% 0.00 in 214.00 W/m2
10:45 23.4 °F 19.0 °F 30.04 in WSW 6.9 mph 4.3 mph 83% 0.00 in 176.00 W/m2
10:49 23.3 °F 18.9 °F 30.03 in West 10.4 mph 2.3 mph 83% 0.00 in 135.00 W/m2
10:54 23.3 °F 19.2 °F 30.03 in WNW 8.1 mph 3.2 mph 84% 0.00 in 120.00 W/m2
10:59 23.3 °F 19.2 °F 30.03 in WNW 8.1 mph 3.6 mph 84% 0.00 in 165.00 W/m2
11:04 23.3 °F 19.2 °F 30.03 in North 6.9 mph 4.5 mph 84% 0.00 in 195.00 W/m2
11:09 23.5 °F 19.7 °F 30.03 in WSW 5.0 mph 4.4 mph 85% 0.00 in 162.00 W/m2
11:14 23.3 °F 19.2 °F 30.02 in West 9.2 mph 5.5 mph 84% 0.00 in 241.00 W/m2
11:19 23.4 °F 19.6 °F 30.02 in SW 8.1 mph 2.6 mph 85% 0.00 in 185.00 W/m2
11:24 23.4 °F 19.6 °F 30.02 in North 9.2 mph 5.7 mph 85% 0.00 in 216.00 W/m2
11:29 23.4 °F 19.3 °F 30.02 in West 8.1 mph 3.0 mph 84% 0.00 in 181.00 W/m2
11:34 23.5 °F 19.7 °F 30.02 in WSW 10.4 mph 5.0 mph 85% 0.00 in 190.00 W/m2
11:39 23.4 °F 19.3 °F 30.02 in WSW 9.0 mph 6.5 mph 84% 0.00 in 202.00 W/m2
11:44 23.6 °F 19.5 °F 30.02 in WNW 3.5 mph 2.2 mph 84% 0.00 in 171.00 W/m2
11:49 23.6 °F 19.2 °F 30.02 in West 11.5 mph 3.9 mph 83% 0.00 in 134.00 W/m2
11:54 23.5 °F 19.1 °F 30.02 in WSW 8.1 mph 5.2 mph 83% 0.00 in 123.00 W/m2
11:59 23.5 °F 18.8 °F 30.02 in North 10.0 mph 4.0 mph 82% 0.00 in 90.00 W/m2
12:04 23.6 °F 18.9 °F 30.02 in West 9.0 mph 5.7 mph 82% 0.00 in 74.00 W/m2
12:09 23.4 °F 18.4 °F 30.02 in West 6.9 mph 1.5 mph 81% 0.00 in 70.00 W/m2
12:14 23.5 °F 18.8 °F 30.02 in WSW 11.5 mph 4.3 mph 82% 0.00 in 93.00 W/m2
12:19 23.6 °F 19.2 °F 30.02 in North 5.8 mph 4.3 mph 83% 0.00 in 121.00 W/m2
12:24 23.6 °F 19.2 °F 30.01 in WNW 8.1 mph 3.6 mph 83% 0.00 in 146.00 W/m2
12:29 23.6 °F 19.2 °F 30.02 in SW 6.9 mph 5.3 mph 83% 0.00 in 100.00 W/m2
12:34 23.5 °F 19.1 °F 30.01 in West 9.2 mph 6.9 mph 83% 0.00 in 77.00 W/m2
12:39 23.4 °F 19.0 °F 30.01 in WSW 7.0 mph 6.5 mph 83% 0.00 in 77.00 W/m2
12:44 23.3 °F 18.9 °F 30.01 in West 11.5 mph 6.5 mph 83% 0.00 in 72.00 W/m2
12:49 23.3 °F 18.6 °F 30.01 in North 8.1 mph 5.2 mph 82% 0.00 in 91.00 W/m2
12:54 23.4 °F 18.7 °F 30.01 in West 6.0 mph 3.7 mph 82% 0.00 in 83.00 W/m2
12:59 23.4 °F 18.7 °F 30.01 in WSW 11.5 mph 7.3 mph 82% 0.00 in 81.00 W/m2
13:04 23.3 °F 18.6 °F 30.01 in West 8.1 mph 4.5 mph 82% 0.00 in 72.00 W/m2
13:09 23.4 °F 18.7 °F 30.01 in SW 11.5 mph 5.1 mph 82% 0.00 in 62.00 W/m2
13:14 23.3 °F 18.6 °F 30.01 in WNW 11.5 mph 5.5 mph 82% 0.00 in 60.00 W/m2
13:19 23.3 °F 18.9 °F 30.01 in NW 6.9 mph 4.5 mph 83% 0.00 in 63.00 W/m2
13:24 23.3 °F 18.9 °F 30.01 in North 10.4 mph 4.6 mph 83% 0.00 in 109.00 W/m2
13:29 23.3 °F 18.9 °F 30.01 in SW 8.1 mph 3.1 mph 83% 0.00 in 123.00 W/m2
13:34 23.4 °F 18.7 °F 30.01 in NW 10.4 mph 6.9 mph 82% 0.00 in 141.00 W/m2
13:39 23.4 °F 18.7 °F 30.01 in NW 8.1 mph 4.5 mph 82% 0.00 in 81.00 W/m2
13:44 23.4 °F 18.4 °F 30.01 in West 8.0 mph 4.2 mph 81% 0.00 in 72.00 W/m2
13:49 23.3 °F 18.3 °F 30.01 in NW 10.4 mph 6.0 mph 81% 0.00 in 63.00 W/m2
13:54 23.1 °F 18.1 °F 30.01 in WNW 11.5 mph 6.2 mph 81% 0.00 in 54.00 W/m2
13:59 23.1 °F 17.8 °F 30.01 in North 8.1 mph 5.5 mph 80% 0.00 in 56.00 W/m2
14:04 23.1 °F 18.1 °F 30.01 in WNW 4.6 mph 4.7 mph 81% 0.00 in 58.00 W/m2
14:09 23.2 °F 18.2 °F 30.01 in West 8.1 mph 3.2 mph 81% 0.00 in 63.00 W/m2
14:14 23.3 °F 18.6 °F 30.01 in WNW 9.2 mph 3.8 mph 82% 0.00 in 62.00 W/m2
14:19 23.3 °F 18.6 °F 30.01 in NW 9.2 mph 5.1 mph 82% 0.00 in 51.00 W/m2
14:24 23.1 °F 18.1 °F 30.01 in West 11.5 mph 6.9 mph 81% 0.00 in 51.00 W/m2
14:29 23.0 °F 18.0 °F 30.01 in WSW 11.5 mph 7.0 mph 81% 0.00 in 56.00 W/m2
14:34 22.9 °F 17.9 °F 30.01 in SW 13.8 mph 6.1 mph 81% 0.00 in 67.00 W/m2
14:39 22.9 °F 17.9 °F 30.02 in North 9.2 mph 5.1 mph 81% 0.00 in 74.00 W/m2
14:44 22.9 °F 17.7 °F 30.02 in North 11.5 mph 8.8 mph 80% 0.00 in 98.00 W/m2
14:49 23.0 °F 17.5 °F 30.02 in West 15.0 mph 8.5 mph 79% 0.00 in 144.00 W/m2
14:54 23.1 °F 17.6 °F 30.02 in North 9.2 mph 6.7 mph 79% 0.00 in 98.00 W/m2
14:59 23.1 °F 17.3 °F 30.03 in North 11.5 mph 5.8 mph 78% 0.00 in 253.00 W/m2
15:04 23.0 °F 16.9 °F 30.03 in WSW 13.8 mph 4.9 mph 77% 0.00 in 134.00 W/m2
15:09 22.9 °F 16.8 °F 30.03 in West 11.5 mph 5.0 mph 77% 0.00 in 156.00 W/m2
15:14 22.8 °F 17.0 °F 30.03 in North 9.2 mph 4.1 mph 78% 0.00 in 100.00 W/m2
15:19 22.5 °F 16.7 °F 30.03 in West 11.5 mph 6.0 mph 78% 0.00 in 37.00 W/m2
15:24 22.3 °F 16.8 °F 30.04 in North 16.1 mph 8.0 mph 79% 0.00 in 49.00 W/m2
15:29 22.2 °F 16.7 °F 30.04 in North 12.7 mph 8.0 mph 79% 0.00 in 35.00 W/m2
15:34 22.1 °F 16.9 °F 30.04 in North 10.0 mph 6.3 mph 80% 0.00 in 30.00 W/m2
15:39 22.1 °F 16.9 °F 30.04 in West 11.5 mph 7.9 mph 80% 0.00 in 21.00 W/m2
15:44 22.1 °F 16.9 °F 30.04 in West 9.0 mph 5.1 mph 80% 0.00 in 21.00 W/m2
15:49 21.9 °F 16.7 °F 30.04 in WNW 9.2 mph 4.8 mph 80% 0.00 in 16.00 W/m2
15:54 21.9 °F 16.7 °F 30.04 in West 12.7 mph 6.4 mph 80% 0.00 in 14.00 W/m2
15:59 21.7 °F 16.2 °F 30.05 in West 15.0 mph 7.9 mph 79% 0.00 in 14.00 W/m2
16:04 21.6 °F 16.1 °F 30.04 in WNW 10.4 mph 4.9 mph 79% 0.00 in 12.00 W/m2
16:09 21.4 °F 15.9 °F 30.04 in North 11.5 mph 9.1 mph 79% 0.00 in 7.00 W/m2
16:14 21.2 °F 15.7 °F 30.05 in West 12.7 mph 6.8 mph 79% 0.00 in 5.00 W/m2
16:19 20.9 °F 15.4 °F 30.04 in North 12.7 mph 5.9 mph 79% 0.00 in 5.00 W/m2
16:24 20.7 °F 15.5 °F 30.05 in WNW 13.8 mph 5.7 mph 80% 0.00 in 0.00 W/m2
16:29 20.5 °F 15.3 °F 30.05 in West 10.4 mph 3.5 mph 80% 0.00 in 0.00 W/m2
16:34 20.3 °F 15.4 °F 30.05 in NW 9.2 mph 5.1 mph 81% 0.00 in 0.00 W/m2
16:39 20.1 °F 15.2 °F 30.05 in NW 12.7 mph 6.9 mph 81% 0.00 in 0.00 W/m2
16:44 20.1 °F 15.5 °F 30.05 in NW 6.9 mph 5.2 mph 82% 0.00 in 0.00 W/m2
16:49 20.1 °F 15.5 °F 30.05 in WNW 12.7 mph 5.5 mph 82% 0.00 in 0.00 W/m2
16:54 20.0 °F 15.4 °F 30.06 in WNW 10.4 mph 6.1 mph 82% 0.00 in 0.00 W/m2
16:59 19.7 °F 15.1 °F 30.06 in NNW 8.1 mph 2.5 mph 82% 0.00 in 0.00 W/m2
17:04 19.4 °F 14.8 °F 30.06 in WNW 11.5 mph 6.2 mph 82% 0.00 in 0.00 W/m2
17:09 19.1 °F 14.8 °F 30.06 in North 11.5 mph 3.9 mph 83% 0.00 in 0.00 W/m2
17:14 19.0 °F 14.7 °F 30.06 in NW 11.0 mph 5.2 mph 83% 0.00 in 0.00 W/m2
17:19 18.9 °F 14.6 °F 30.06 in West 10.4 mph 4.9 mph 83% 0.00 in 0.00 W/m2
17:24 18.8 °F 14.8 °F 30.06 in North 10.4 mph 3.8 mph 84% 0.00 in 0.00 W/m2
17:29 18.8 °F 14.8 °F 30.05 in North 11.5 mph 4.8 mph 84% 0.00 in 0.00 W/m2
17:34 18.7 °F 14.7 °F 30.06 in North 9.2 mph 4.4 mph 84% 0.00 in 0.00 W/m2
17:39 18.7 °F 14.7 °F 30.06 in WNW 9.2 mph 5.3 mph 84% 0.00 in 0.00 W/m2
17:44 18.7 °F 14.7 °F 30.06 in North 6.0 mph 3.6 mph 84% 0.00 in 0.00 W/m2
17:49 18.6 °F 14.6 °F 30.06 in WNW 8.1 mph 4.3 mph 84% 0.00 in 0.00 W/m2
17:54 18.5 °F 14.5 °F 30.06 in WSW 6.0 mph 3.8 mph 84% 0.00 in 0.00 W/m2
17:59 18.5 °F 14.7 °F 30.06 in WNW 5.8 mph 2.5 mph 85% 0.00 in 0.00 W/m2
18:04 18.5 °F 14.7 °F 30.06 in North 5.0 mph 2.7 mph 85% 0.00 in 0.00 W/m2
18:09 18.5 °F 14.7 °F 30.06 in West 5.8 mph 4.5 mph 85% 0.00 in 0.00 W/m2
18:14 18.5 °F 14.7 °F 30.06 in North 5.8 mph 3.4 mph 85% 0.00 in 0.00 W/m2
18:19 18.5 °F 15.0 °F 30.06 in SW 8.1 mph 4.3 mph 86% 0.00 in 0.00 W/m2
18:24 18.4 °F 14.6 °F 30.06 in WSW 9.2 mph 3.8 mph 85% 0.00 in 0.00 W/m2
18:29 18.3 °F 14.5 °F 30.06 in WSW 10.4 mph 4.0 mph 85% 0.00 in 0.00 W/m2
18:34 18.3 °F 14.5 °F 30.07 in SW 10.4 mph 6.0 mph 85% 0.00 in 0.00 W/m2
18:39 18.3 °F 14.5 °F 30.06 in WSW 10.4 mph 5.3 mph 85% 0.00 in 0.00 W/m2
18:44 18.3 °F 14.5 °F 30.07 in WNW 8.1 mph 4.5 mph 85% 0.00 in 0.00 W/m2
18:49 18.3 °F 14.5 °F 30.07 in WSW 6.9 mph 4.5 mph 85% 0.00 in 0.00 W/m2
18:54 18.3 °F 14.5 °F 30.07 in SW 6.0 mph 6.0 mph 85% 0.00 in 0.00 W/m2
18:59 18.2 °F 14.4 °F 30.07 in SSW 8.1 mph 5.8 mph 85% 0.00 in 0.00 W/m2
19:04 18.0 °F 14.3 °F 30.07 in WSW 11.5 mph 5.5 mph 85% 0.00 in 0.00 W/m2
19:09 17.9 °F 14.2 °F 30.06 in SW 11.5 mph 7.6 mph 85% 0.00 in 0.00 W/m2
19:14 17.9 °F 14.2 °F 30.07 in North 10.4 mph 5.4 mph 85% 0.00 in 0.00 W/m2
19:19 17.8 °F 14.1 °F 30.06 in WSW 12.7 mph 7.8 mph 85% 0.00 in 0.00 W/m2
19:24 17.7 °F 14.0 °F 30.06 in WSW 9.2 mph 6.9 mph 85% 0.00 in 0.00 W/m2
19:29 17.8 °F 14.1 °F 30.06 in SW 11.5 mph 6.5 mph 85% 0.00 in 0.00 W/m2
19:34 17.7 °F 14.0 °F 30.06 in SW 12.7 mph 9.3 mph 85% 0.00 in 0.00 W/m2
19:39 17.7 °F 14.0 °F 30.06 in SW 12.0 mph 7.4 mph 85% 0.00 in 0.00 W/m2
19:44 17.7 °F 14.0 °F 30.06 in WSW 9.2 mph 5.2 mph 85% 0.00 in 0.00 W/m2
19:49 17.7 °F 14.0 °F 30.06 in SW 4.0 mph 4.0 mph 85% 0.00 in 0.00 W/m2
19:54 17.6 °F 13.9 °F 30.06 in WSW 10.4 mph 5.4 mph 85% 0.00 in 0.00 W/m2
19:59 17.6 °F 13.9 °F 30.06 in WSW 8.0 mph 6.7 mph 85% 0.00 in 0.00 W/m2
20:04 17.6 °F 13.9 °F 30.06 in North 13.8 mph 7.9 mph 85% 0.00 in 0.00 W/m2
20:09 17.6 °F 13.9 °F 30.06 in North 9.2 mph 4.9 mph 85% 0.00 in 0.00 W/m2
20:14 17.5 °F 13.8 °F 30.06 in West 10.4 mph 5.5 mph 85% 0.00 in 0.00 W/m2
20:19 17.5 °F 13.8 °F 30.06 in North 12.0 mph 6.4 mph 85% 0.00 in 0.00 W/m2
20:24 17.5 °F 13.8 °F 30.06 in North 10.4 mph 5.3 mph 85% 0.00 in 0.00 W/m2
20:29 17.5 °F 14.0 °F 30.06 in SW 9.2 mph 5.0 mph 86% 0.00 in 0.00 W/m2
20:34 17.5 °F 14.0 °F 30.06 in WNW 10.4 mph 5.9 mph 86% 0.00 in 0.00 W/m2
20:39 17.5 °F 14.0 °F 30.06 in WSW 6.9 mph 3.6 mph 86% 0.00 in 0.00 W/m2
20:44 17.6 °F 14.1 °F 30.07 in SW 8.1 mph 5.3 mph 86% 0.00 in 0.00 W/m2
20:49 17.5 °F 14.0 °F 30.07 in North 8.0 mph 6.0 mph 86% 0.00 in 0.00 W/m2
20:54 17.5 °F 14.3 °F 30.07 in WSW 6.9 mph 3.8 mph 87% 0.00 in 0.00 W/m2
20:59 17.6 °F 14.4 °F 30.07 in WSW 9.2 mph 3.7 mph 87% 0.00 in 0.00 W/m2
21:04 17.7 °F 14.5 °F 30.07 in North 5.0 mph 4.0 mph 87% 0.00 in 0.00 W/m2
21:09 17.6 °F 14.4 °F 30.07 in West 10.4 mph 5.9 mph 87% 0.00 in 0.00 W/m2
21:14 17.5 °F 14.3 °F 30.07 in North 8.1 mph 4.1 mph 87% 0.00 in 0.00 W/m2
21:19 17.5 °F 14.3 °F 30.07 in SW 8.1 mph 4.3 mph 87% 0.00 in 0.00 W/m2
21:24 17.6 °F 14.4 °F 30.07 in WSW 8.0 mph 6.0 mph 87% 0.00 in 0.00 W/m2
21:29 17.5 °F 14.3 °F 30.07 in SW 9.2 mph 3.6 mph 87% 0.00 in 0.00 W/m2
21:34 17.5 °F 14.3 °F 30.07 in WSW 8.1 mph 5.4 mph 87% 0.00 in 0.00 W/m2
21:39 17.5 °F 14.3 °F 30.07 in WSW 6.9 mph 5.5 mph 87% 0.00 in 0.00 W/m2
21:44 17.6 °F 14.4 °F 30.07 in WNW 8.1 mph 5.8 mph 87% 0.00 in 0.00 W/m2
21:49 17.5 °F 14.3 °F 30.07 in WSW 10.0 mph 6.4 mph 87% 0.00 in 0.00 W/m2
21:54 17.5 °F 14.3 °F 30.07 in WSW 6.9 mph 2.6 mph 87% 0.00 in 0.00 W/m2
21:59 17.5 °F 14.3 °F 30.07 in WSW 6.0 mph 4.6 mph 87% 0.00 in 0.00 W/m2
22:04 17.5 °F 14.3 °F 30.07 in West 5.8 mph 5.1 mph 87% 0.00 in 0.00 W/m2
22:09 17.4 °F 14.2 °F 30.07 in North 5.0 mph 5.0 mph 87% 0.00 in 0.00 W/m2
22:14 17.3 °F 14.1 °F 30.07 in WSW 5.8 mph 3.9 mph 87% 0.00 in 0.00 W/m2
22:19 17.3 °F 14.1 °F 30.07 in North 10.4 mph 6.4 mph 87% 0.00 in 0.00 W/m2
22:24 17.2 °F 14.0 °F 30.07 in SW 8.1 mph 4.7 mph 87% 0.00 in 0.00 W/m2
22:29 17.1 °F 13.9 °F 30.07 in North 8.1 mph 5.9 mph 87% 0.00 in 0.00 W/m2
22:34 17.1 °F 13.9 °F 30.07 in North 6.9 mph 4.7 mph 87% 0.00 in 0.00 W/m2
22:39 17.0 °F 13.8 °F 30.07 in North 8.1 mph 6.0 mph 87% 0.00 in 0.00 W/m2
22:44 16.9 °F 13.7 °F 30.07 in West 8.1 mph 5.9 mph 87% 0.00 in 0.00 W/m2
22:49 16.9 °F 13.7 °F 30.07 in WSW 6.9 mph 5.4 mph 87% 0.00 in 0.00 W/m2
22:54 16.8 °F 13.6 °F 30.08 in North 9.2 mph 5.7 mph 87% 0.00 in 0.00 W/m2
22:59 16.8 °F 13.6 °F 30.08 in SW 4.6 mph 3.7 mph 87% 0.00 in 0.00 W/m2
23:04 16.8 °F 13.6 °F 30.08 in North 10.4 mph 5.0 mph 87% 0.00 in 0.00 W/m2
23:09 16.7 °F 13.5 °F 30.08 in North 5.8 mph 2.9 mph 87% 0.00 in 0.00 W/m2
23:14 16.8 °F 13.6 °F 30.08 in WSW 8.1 mph 5.5 mph 87% 0.00 in 0.00 W/m2
23:19 17.0 °F 13.8 °F 30.08 in North 8.1 mph 5.3 mph 87% 0.00 in 0.00 W/m2
23:24 17.0 °F 13.8 °F 30.08 in WSW 6.9 mph 6.4 mph 87% 0.00 in 0.00 W/m2
23:29 17.2 °F 14.0 °F 30.08 in West 10.4 mph 4.9 mph 87% 0.00 in 0.00 W/m2
23:34 17.2 °F 14.0 °F 30.08 in WSW 11.5 mph 8.8 mph 87% 0.00 in 0.00 W/m2
23:39 17.2 °F 14.0 °F 30.09 in North 11.5 mph 5.4 mph 87% 0.00 in 0.00 W/m2
23:44 17.3 °F 13.8 °F 30.09 in North 9.2 mph 4.2 mph 86% 0.00 in 0.00 W/m2
23:49 17.3 °F 13.8 °F 30.09 in North 9.2 mph 6.3 mph 86% 0.00 in 0.00 W/m2
23:54 17.4 °F 13.9 °F 30.09 in WSW 9.0 mph 6.4 mph 86% 0.00 in 0.00 W/m2
23:59 17.4 °F 13.9 °F 30.09 in North 8.1 mph 4.1 mph 86% 0.00 in 0.00 W/m2
Bourbonnais, Illinois, USA
Compliments of Weather Underground - 4 mb